sensor_id;sensor_type;location;lat;lon;timestamp;P1;durP1;ratioP1;P2;durP2;ratioP2
26690;SDS011;14307;51.718;8.938;2022-12-07T00:01:16;589.85;;;96.40;;
26690;SDS011;14307;51.718;8.938;2022-12-07T00:03:45;858.80;;;127.03;;
26690;SDS011;14307;51.718;8.938;2022-12-07T00:06:14;1201.18;;;156.82;;
26690;SDS011;14307;51.718;8.938;2022-12-07T00:08:42;1222.85;;;179.98;;
26690;SDS011;14307;51.718;8.938;2022-12-07T00:11:10;1268.22;;;175.65;;
26690;SDS011;14307;51.718;8.938;2022-12-07T00:13:39;1314.80;;;183.70;;
26690;SDS011;14307;51.718;8.938;2022-12-07T00:18:35;1404.50;;;189.18;;
26690;SDS011;14307;51.718;8.938;2022-12-07T00:21:10;1515.47;;;203.50;;
26690;SDS011;14307;51.718;8.938;2022-12-07T00:23:45;1213.57;;;168.63;;
26690;SDS011;14307;51.718;8.938;2022-12-07T00:26:23;1268.28;;;174.82;;
26690;SDS011;14307;51.718;8.938;2022-12-07T00:28:52;1397.00;;;197.45;;
26690;SDS011;14307;51.718;8.938;2022-12-07T00:31:25;1366.53;;;172.55;;
26690;SDS011;14307;51.718;8.938;2022-12-07T00:33:54;1495.22;;;211.02;;
26690;SDS011;14307;51.718;8.938;2022-12-07T00:36:22;1556.03;;;206.70;;
26690;SDS011;14307;51.718;8.938;2022-12-07T00:38:53;1413.22;;;184.52;;
26690;SDS011;14307;51.718;8.938;2022-12-07T00:41:22;1463.72;;;196.23;;
26690;SDS011;14307;51.718;8.938;2022-12-07T00:43:49;1307.68;;;176.10;;
26690;SDS011;14307;51.718;8.938;2022-12-07T00:46:17;1383.85;;;196.77;;
26690;SDS011;14307;51.718;8.938;2022-12-07T00:48:46;1639.95;;;220.05;;
26690;SDS011;14307;51.718;8.938;2022-12-07T00:51:14;1515.00;;;195.63;;
26690;SDS011;14307;51.718;8.938;2022-12-07T00:53:41;1332.53;;;184.52;;
26690;SDS011;14307;51.718;8.938;2022-12-07T00:56:09;1157.53;;;160.57;;
26690;SDS011;14307;51.718;8.938;2022-12-07T00:58:39;1306.97;;;185.10;;
26690;SDS011;14307;51.718;8.938;2022-12-07T01:01:06;1419.93;;;195.13;;
26690;SDS011;14307;51.718;8.938;2022-12-07T01:03:33;1401.57;;;189.15;;
26690;SDS011;14307;51.718;8.938;2022-12-07T01:06:00;1543.57;;;217.80;;
26690;SDS011;14307;51.718;8.938;2022-12-07T01:08:27;1645.85;;;209.90;;
26690;SDS011;14307;51.718;8.938;2022-12-07T01:11:05;1561.70;;;205.13;;
26690;SDS011;14307;51.718;8.938;2022-12-07T01:13:34;1617.15;;;218.52;;
26690;SDS011;14307;51.718;8.938;2022-12-07T01:16:02;1487.68;;;200.30;;
26690;SDS011;14307;51.718;8.938;2022-12-07T01:18:31;1492.18;;;204.90;;
26690;SDS011;14307;51.718;8.938;2022-12-07T01:20:59;1428.10;;;186.40;;
26690;SDS011;14307;51.718;8.938;2022-12-07T01:23:27;1468.55;;;199.48;;
26690;SDS011;14307;51.718;8.938;2022-12-07T01:25:58;1477.55;;;197.85;;
26690;SDS011;14307;51.718;8.938;2022-12-07T01:28:27;1480.15;;;205.52;;
26690;SDS011;14307;51.718;8.938;2022-12-07T01:30:57;1492.97;;;194.10;;
26690;SDS011;14307;51.718;8.938;2022-12-07T01:33:30;1585.70;;;217.63;;
26690;SDS011;14307;51.718;8.938;2022-12-07T01:38:43;1479.57;;;201.52;;
26690;SDS011;14307;51.718;8.938;2022-12-07T01:41:11;1585.38;;;209.98;;
26690;SDS011;14307;51.718;8.938;2022-12-07T01:44:07;1606.45;;;221.20;;
26690;SDS011;14307;51.718;8.938;2022-12-07T01:46:40;1461.50;;;196.23;;
26690;SDS011;14307;51.718;8.938;2022-12-07T01:49:10;1605.72;;;218.57;;
26690;SDS011;14307;51.718;8.938;2022-12-07T01:51:41;1531.95;;;202.05;;
26690;SDS011;14307;51.718;8.938;2022-12-07T01:54:09;1528.75;;;202.35;;
26690;SDS011;14307;51.718;8.938;2022-12-07T01:56:40;1617.93;;;216.02;;
26690;SDS011;14307;51.718;8.938;2022-12-07T01:59:13;1396.38;;;213.40;;
26690;SDS011;14307;51.718;8.938;2022-12-07T02:01:40;1509.72;;;210.80;;
26690;SDS011;14307;51.718;8.938;2022-12-07T02:04:07;1403.57;;;203.93;;
26690;SDS011;14307;51.718;8.938;2022-12-07T02:06:34;1318.72;;;196.30;;
26690;SDS011;14307;51.718;8.938;2022-12-07T02:09:02;1412.47;;;195.60;;
26690;SDS011;14307;51.718;8.938;2022-12-07T02:11:29;1203.05;;;167.05;;
26690;SDS011;14307;51.718;8.938;2022-12-07T02:13:57;951.20;;;141.18;;
26690;SDS011;14307;51.718;8.938;2022-12-07T02:21:47;340.77;;;78.13;;
26690;SDS011;14307;51.718;8.938;2022-12-07T02:35:05;498.58;;;98.00;;
26690;SDS011;14307;51.718;8.938;2022-12-07T02:40:38;530.15;;;104.47;;
26690;SDS011;14307;51.718;8.938;2022-12-07T02:43:09;1113.75;;;162.82;;
26690;SDS011;14307;51.718;8.938;2022-12-07T02:46:24;1643.00;;;234.88;;
26690;SDS011;14307;51.718;8.938;2022-12-07T02:48:57;1566.28;;;206.07;;
26690;SDS011;14307;51.718;8.938;2022-12-07T02:51:25;1441.22;;;206.13;;
26690;SDS011;14307;51.718;8.938;2022-12-07T02:53:56;1273.03;;;182.60;;
26690;SDS011;14307;51.718;8.938;2022-12-07T03:04:21;1351.65;;;194.15;;
26690;SDS011;14307;51.718;8.938;2022-12-07T03:07:08;1323.70;;;180.48;;
26690;SDS011;14307;51.718;8.938;2022-12-07T03:09:52;439.27;;;92.93;;
26690;SDS011;14307;51.718;8.938;2022-12-07T03:12:45;1087.93;;;150.98;;
26690;SDS011;14307;51.718;8.938;2022-12-07T03:15:17;1348.03;;;181.57;;
26690;SDS011;14307;51.718;8.938;2022-12-07T03:17:55;1416.90;;;194.35;;
26690;SDS011;14307;51.718;8.938;2022-12-07T03:20:25;1279.70;;;181.45;;
26690;SDS011;14307;51.718;8.938;2022-12-07T03:22:54;439.75;;;86.45;;
26690;SDS011;14307;51.718;8.938;2022-12-07T03:25:21;451.70;;;91.72;;
26690;SDS011;14307;51.718;8.938;2022-12-07T03:27:49;421.73;;;88.15;;
26690;SDS011;14307;51.718;8.938;2022-12-07T03:30:28;337.58;;;76.65;;
26690;SDS011;14307;51.718;8.938;2022-12-07T03:33:03;605.63;;;105.07;;
26690;SDS011;14307;51.718;8.938;2022-12-07T03:35:45;268.35;;;66.32;;
26690;SDS011;14307;51.718;8.938;2022-12-07T03:38:56;239.93;;;60.88;;
26690;SDS011;14307;51.718;8.938;2022-12-07T03:41:29;241.38;;;62.22;;
26690;SDS011;14307;51.718;8.938;2022-12-07T03:43:59;243.45;;;62.67;;
26690;SDS011;14307;51.718;8.938;2022-12-07T03:52:09;197.43;;;54.60;;
26690;SDS011;14307;51.718;8.938;2022-12-07T03:57:40;169.05;;;46.83;;
26690;SDS011;14307;51.718;8.938;2022-12-07T04:00:09;157.88;;;48.50;;
26690;SDS011;14307;51.718;8.938;2022-12-07T04:02:40;203.73;;;53.88;;
26690;SDS011;14307;51.718;8.938;2022-12-07T04:05:08;170.85;;;49.78;;
26690;SDS011;14307;51.718;8.938;2022-12-07T04:07:35;174.45;;;49.45;;
26690;SDS011;14307;51.718;8.938;2022-12-07T04:10:03;180.88;;;48.15;;
26690;SDS011;14307;51.718;8.938;2022-12-07T04:12:31;133.27;;;39.88;;
26690;SDS011;14307;51.718;8.938;2022-12-07T04:14:57;134.88;;;40.85;;
26690;SDS011;14307;51.718;8.938;2022-12-07T04:17:24;138.30;;;45.13;;
26690;SDS011;14307;51.718;8.938;2022-12-07T04:19:50;157.55;;;42.58;;
26690;SDS011;14307;51.718;8.938;2022-12-07T04:22:17;137.93;;;41.53;;
26690;SDS011;14307;51.718;8.938;2022-12-07T04:24:44;125.65;;;40.85;;
26690;SDS011;14307;51.718;8.938;2022-12-07T04:27:10;138.60;;;42.20;;
26690;SDS011;14307;51.718;8.938;2022-12-07T04:29:37;114.03;;;37.72;;
26690;SDS011;14307;51.718;8.938;2022-12-07T04:32:04;101.72;;;31.50;;
26690;SDS011;14307;51.718;8.938;2022-12-07T04:34:31;98.00;;;33.92;;
26690;SDS011;14307;51.718;8.938;2022-12-07T04:36:57;116.90;;;36.45;;
26690;SDS011;14307;51.718;8.938;2022-12-07T04:39:28;120.30;;;35.35;;
26690;SDS011;14307;51.718;8.938;2022-12-07T04:41:56;140.10;;;42.10;;
26690;SDS011;14307;51.718;8.938;2022-12-07T04:44:24;148.35;;;42.33;;
26690;SDS011;14307;51.718;8.938;2022-12-07T04:46:52;149.57;;;42.17;;
26690;SDS011;14307;51.718;8.938;2022-12-07T04:49:20;126.70;;;39.33;;
26690;SDS011;14307;51.718;8.938;2022-12-07T04:51:47;133.77;;;38.90;;
26690;SDS011;14307;51.718;8.938;2022-12-07T04:54:14;126.68;;;38.22;;
26690;SDS011;14307;51.718;8.938;2022-12-07T04:56:42;106.85;;;34.83;;
26690;SDS011;14307;51.718;8.938;2022-12-07T04:59:09;133.32;;;36.45;;
26690;SDS011;14307;51.718;8.938;2022-12-07T05:01:37;132.18;;;40.70;;
26690;SDS011;14307;51.718;8.938;2022-12-07T05:04:04;141.50;;;40.40;;
26690;SDS011;14307;51.718;8.938;2022-12-07T05:06:31;117.53;;;38.28;;
26690;SDS011;14307;51.718;8.938;2022-12-07T05:08:58;137.45;;;41.70;;
26690;SDS011;14307;51.718;8.938;2022-12-07T05:11:25;133.98;;;42.50;;
26690;SDS011;14307;51.718;8.938;2022-12-07T05:14:08;156.50;;;42.08;;
26690;SDS011;14307;51.718;8.938;2022-12-07T05:16:38;139.80;;;40.53;;
26690;SDS011;14307;51.718;8.938;2022-12-07T05:19:05;129.23;;;40.30;;
26690;SDS011;14307;51.718;8.938;2022-12-07T05:21:32;119.30;;;37.33;;
26690;SDS011;14307;51.718;8.938;2022-12-07T05:23:59;135.02;;;43.17;;
26690;SDS011;14307;51.718;8.938;2022-12-07T05:26:27;136.05;;;38.95;;
26690;SDS011;14307;51.718;8.938;2022-12-07T05:28:54;132.27;;;41.53;;
26690;SDS011;14307;51.718;8.938;2022-12-07T05:31:23;134.45;;;40.75;;
26690;SDS011;14307;51.718;8.938;2022-12-07T05:33:50;160.52;;;44.92;;
26690;SDS011;14307;51.718;8.938;2022-12-07T05:36:17;161.43;;;47.03;;
26690;SDS011;14307;51.718;8.938;2022-12-07T05:38:44;162.68;;;43.65;;
26690;SDS011;14307;51.718;8.938;2022-12-07T05:41:12;147.95;;;40.97;;
26690;SDS011;14307;51.718;8.938;2022-12-07T05:44:01;170.40;;;46.40;;
26690;SDS011;14307;51.718;8.938;2022-12-07T05:46:28;161.13;;;45.83;;
26690;SDS011;14307;51.718;8.938;2022-12-07T05:48:54;159.25;;;43.70;;
26690;SDS011;14307;51.718;8.938;2022-12-07T05:51:21;216.68;;;51.40;;
26690;SDS011;14307;51.718;8.938;2022-12-07T05:53:48;162.65;;;43.40;;
26690;SDS011;14307;51.718;8.938;2022-12-07T05:56:14;199.10;;;49.10;;
26690;SDS011;14307;51.718;8.938;2022-12-07T05:58:41;179.23;;;46.83;;
26690;SDS011;14307;51.718;8.938;2022-12-07T06:01:26;161.75;;;45.65;;
26690;SDS011;14307;51.718;8.938;2022-12-07T06:03:53;168.02;;;47.65;;
26690;SDS011;14307;51.718;8.938;2022-12-07T06:06:20;211.43;;;52.97;;
26690;SDS011;14307;51.718;8.938;2022-12-07T06:08:47;224.80;;;57.22;;
26690;SDS011;14307;51.718;8.938;2022-12-07T06:11:14;256.75;;;59.88;;
26690;SDS011;14307;51.718;8.938;2022-12-07T06:13:59;282.88;;;63.42;;
26690;SDS011;14307;51.718;8.938;2022-12-07T06:16:25;259.60;;;60.00;;
26690;SDS011;14307;51.718;8.938;2022-12-07T06:18:52;259.27;;;59.30;;
26690;SDS011;14307;51.718;8.938;2022-12-07T06:21:19;275.63;;;60.50;;
26690;SDS011;14307;51.718;8.938;2022-12-07T06:23:46;226.70;;;60.15;;
26690;SDS011;14307;51.718;8.938;2022-12-07T06:26:14;230.05;;;59.13;;
26690;SDS011;14307;51.718;8.938;2022-12-07T06:28:41;225.32;;;56.15;;
26690;SDS011;14307;51.718;8.938;2022-12-07T06:31:08;229.98;;;60.65;;
26690;SDS011;14307;51.718;8.938;2022-12-07T06:33:39;190.48;;;53.80;;
26690;SDS011;14307;51.718;8.938;2022-12-07T06:36:06;168.80;;;48.47;;
26690;SDS011;14307;51.718;8.938;2022-12-07T06:38:33;143.65;;;43.42;;
26690;SDS011;14307;51.718;8.938;2022-12-07T06:41:00;134.13;;;41.17;;
26690;SDS011;14307;51.718;8.938;2022-12-07T06:43:27;153.68;;;43.63;;
26690;SDS011;14307;51.718;8.938;2022-12-07T06:45:53;140.15;;;40.75;;
26690;SDS011;14307;51.718;8.938;2022-12-07T06:48:20;170.75;;;46.42;;
26690;SDS011;14307;51.718;8.938;2022-12-07T06:50:47;180.13;;;48.03;;
26690;SDS011;14307;51.718;8.938;2022-12-07T06:53:20;186.88;;;51.33;;
26690;SDS011;14307;51.718;8.938;2022-12-07T06:55:46;167.40;;;47.72;;
26690;SDS011;14307;51.718;8.938;2022-12-07T06:58:13;174.65;;;45.92;;
26690;SDS011;14307;51.718;8.938;2022-12-07T07:00:40;175.45;;;50.35;;
26690;SDS011;14307;51.718;8.938;2022-12-07T07:03:07;185.45;;;49.40;;
26690;SDS011;14307;51.718;8.938;2022-12-07T07:05:34;236.40;;;59.13;;
26690;SDS011;14307;51.718;8.938;2022-12-07T07:08:00;217.45;;;55.00;;
26690;SDS011;14307;51.718;8.938;2022-12-07T07:10:47;260.67;;;62.15;;
26690;SDS011;14307;51.718;8.938;2022-12-07T07:13:14;232.98;;;57.30;;
26690;SDS011;14307;51.718;8.938;2022-12-07T07:15:40;235.73;;;58.30;;
26690;SDS011;14307;51.718;8.938;2022-12-07T07:18:07;249.90;;;57.20;;
26690;SDS011;14307;51.718;8.938;2022-12-07T07:20:34;231.80;;;55.33;;
26690;SDS011;14307;51.718;8.938;2022-12-07T07:23:00;187.02;;;48.38;;
26690;SDS011;14307;51.718;8.938;2022-12-07T07:25:27;192.75;;;51.88;;
26690;SDS011;14307;51.718;8.938;2022-12-07T07:27:54;147.75;;;43.45;;
26690;SDS011;14307;51.718;8.938;2022-12-07T07:30:21;148.88;;;44.03;;
26690;SDS011;14307;51.718;8.938;2022-12-07T07:32:49;146.40;;;43.22;;
26690;SDS011;14307;51.718;8.938;2022-12-07T07:35:16;159.77;;;48.25;;
26690;SDS011;14307;51.718;8.938;2022-12-07T07:37:43;167.98;;;49.25;;
26690;SDS011;14307;51.718;8.938;2022-12-07T07:40:09;195.30;;;51.33;;
26690;SDS011;14307;51.718;8.938;2022-12-07T07:42:36;199.27;;;53.72;;
26690;SDS011;14307;51.718;8.938;2022-12-07T07:45:03;220.07;;;55.35;;
26690;SDS011;14307;51.718;8.938;2022-12-07T07:47:30;151.20;;;45.22;;
26690;SDS011;14307;51.718;8.938;2022-12-07T07:49:57;179.25;;;48.17;;
26690;SDS011;14307;51.718;8.938;2022-12-07T07:52:24;295.65;;;64.82;;
26690;SDS011;14307;51.718;8.938;2022-12-07T07:54:50;232.77;;;63.20;;
26690;SDS011;14307;51.718;8.938;2022-12-07T07:57:17;266.27;;;63.90;;
26690;SDS011;14307;51.718;8.938;2022-12-07T07:59:44;259.13;;;64.63;;
26690;SDS011;14307;51.718;8.938;2022-12-07T08:02:18;156.90;;;45.28;;
26690;SDS011;14307;51.718;8.938;2022-12-07T08:04:45;182.93;;;53.50;;
26690;SDS011;14307;51.718;8.938;2022-12-07T08:07:13;198.75;;;53.20;;
26690;SDS011;14307;51.718;8.938;2022-12-07T08:09:41;227.40;;;62.38;;
26690;SDS011;14307;51.718;8.938;2022-12-07T08:12:08;192.13;;;55.25;;
26690;SDS011;14307;51.718;8.938;2022-12-07T08:14:34;234.57;;;62.03;;
26690;SDS011;14307;51.718;8.938;2022-12-07T08:17:01;215.93;;;57.75;;
26690;SDS011;14307;51.718;8.938;2022-12-07T08:19:28;168.77;;;45.75;;
26690;SDS011;14307;51.718;8.938;2022-12-07T08:21:55;173.02;;;48.08;;
26690;SDS011;14307;51.718;8.938;2022-12-07T08:24:22;189.55;;;52.92;;
26690;SDS011;14307;51.718;8.938;2022-12-07T08:26:51;224.75;;;56.58;;
26690;SDS011;14307;51.718;8.938;2022-12-07T08:29:17;197.38;;;52.28;;
26690;SDS011;14307;51.718;8.938;2022-12-07T08:31:44;194.38;;;52.78;;
26690;SDS011;14307;51.718;8.938;2022-12-07T08:34:11;159.20;;;49.33;;
26690;SDS011;14307;51.718;8.938;2022-12-07T08:36:39;151.82;;;46.28;;
26690;SDS011;14307;51.718;8.938;2022-12-07T08:39:06;144.27;;;43.45;;
26690;SDS011;14307;51.718;8.938;2022-12-07T08:41:52;161.10;;;45.28;;
26690;SDS011;14307;51.718;8.938;2022-12-07T08:44:19;149.23;;;44.53;;
26690;SDS011;14307;51.718;8.938;2022-12-07T08:46:47;171.98;;;47.47;;
26690;SDS011;14307;51.718;8.938;2022-12-07T08:49:27;185.23;;;50.92;;
26690;SDS011;14307;51.718;8.938;2022-12-07T08:51:59;170.75;;;47.78;;
26690;SDS011;14307;51.718;8.938;2022-12-07T08:54:25;201.80;;;54.05;;
26690;SDS011;14307;51.718;8.938;2022-12-07T08:56:54;235.23;;;55.75;;
26690;SDS011;14307;51.718;8.938;2022-12-07T08:59:25;211.95;;;58.83;;
26690;SDS011;14307;51.718;8.938;2022-12-07T09:01:53;246.88;;;58.05;;
26690;SDS011;14307;51.718;8.938;2022-12-07T09:04:20;260.20;;;57.92;;
26690;SDS011;14307;51.718;8.938;2022-12-07T09:06:47;301.50;;;63.60;;
26690;SDS011;14307;51.718;8.938;2022-12-07T09:09:14;220.20;;;56.15;;
26690;SDS011;14307;51.718;8.938;2022-12-07T09:11:41;199.85;;;53.67;;
26690;SDS011;14307;51.718;8.938;2022-12-07T09:14:08;191.68;;;49.63;;
26690;SDS011;14307;51.718;8.938;2022-12-07T09:16:35;176.88;;;45.85;;
26690;SDS011;14307;51.718;8.938;2022-12-07T09:19:02;164.90;;;45.95;;
26690;SDS011;14307;51.718;8.938;2022-12-07T09:21:28;177.93;;;50.63;;
26690;SDS011;14307;51.718;8.938;2022-12-07T09:23:55;156.38;;;46.10;;
26690;SDS011;14307;51.718;8.938;2022-12-07T09:26:22;184.75;;;49.80;;
26690;SDS011;14307;51.718;8.938;2022-12-07T09:28:49;180.27;;;49.45;;
26690;SDS011;14307;51.718;8.938;2022-12-07T09:31:16;154.63;;;45.08;;
26690;SDS011;14307;51.718;8.938;2022-12-07T09:33:58;175.07;;;48.83;;
26690;SDS011;14307;51.718;8.938;2022-12-07T09:36:26;178.98;;;48.90;;
26690;SDS011;14307;51.718;8.938;2022-12-07T09:38:54;162.95;;;45.90;;
26690;SDS011;14307;51.718;8.938;2022-12-07T09:41:21;148.18;;;44.72;;
26690;SDS011;14307;51.718;8.938;2022-12-07T09:43:50;161.10;;;45.28;;
26690;SDS011;14307;51.718;8.938;2022-12-07T09:46:19;133.27;;;43.30;;
26690;SDS011;14307;51.718;8.938;2022-12-07T09:48:47;153.30;;;45.63;;
26690;SDS011;14307;51.718;8.938;2022-12-07T09:51:19;169.18;;;49.75;;
26690;SDS011;14307;51.718;8.938;2022-12-07T09:53:54;156.48;;;49.35;;
26690;SDS011;14307;51.718;8.938;2022-12-07T09:56:23;140.43;;;46.33;;
26690;SDS011;14307;51.718;8.938;2022-12-07T09:58:53;138.05;;;45.80;;
26690;SDS011;14307;51.718;8.938;2022-12-07T10:01:28;153.52;;;46.63;;
26690;SDS011;14307;51.718;8.938;2022-12-07T10:04:02;151.45;;;46.75;;
26690;SDS011;14307;51.718;8.938;2022-12-07T10:06:36;134.52;;;41.60;;
26690;SDS011;14307;51.718;8.938;2022-12-07T10:09:08;136.18;;;46.30;;
26690;SDS011;14307;51.718;8.938;2022-12-07T10:11:57;143.68;;;42.88;;
26690;SDS011;14307;51.718;8.938;2022-12-07T10:14:26;121.97;;;42.30;;
26690;SDS011;14307;51.718;8.938;2022-12-07T10:17:27;125.88;;;42.47;;
26690;SDS011;14307;51.718;8.938;2022-12-07T10:20:17;133.45;;;41.58;;
26690;SDS011;14307;51.718;8.938;2022-12-07T10:23:07;124.68;;;43.42;;
26690;SDS011;14307;51.718;8.938;2022-12-07T10:25:41;117.03;;;42.33;;
26690;SDS011;14307;51.718;8.938;2022-12-07T10:28:13;123.22;;;45.08;;
26690;SDS011;14307;51.718;8.938;2022-12-07T10:30:52;128.85;;;42.58;;
26690;SDS011;14307;51.718;8.938;2022-12-07T10:36:38;105.30;;;40.05;;
26690;SDS011;14307;51.718;8.938;2022-12-07T10:39:20;120.63;;;42.83;;
26690;SDS011;14307;51.718;8.938;2022-12-07T10:41:55;106.03;;;39.97;;
26690;SDS011;14307;51.718;8.938;2022-12-07T10:44:28;112.60;;;40.75;;
26690;SDS011;14307;51.718;8.938;2022-12-07T10:49:42;119.93;;;47.42;;
26690;SDS011;14307;51.718;8.938;2022-12-07T10:52:45;118.35;;;45.15;;
26690;SDS011;14307;51.718;8.938;2022-12-07T11:01:03;109.97;;;42.15;;
26690;SDS011;14307;51.718;8.938;2022-12-07T11:03:55;120.47;;;45.35;;
26690;SDS011;14307;51.718;8.938;2022-12-07T11:15:26;123.68;;;43.42;;
26690;SDS011;14307;51.718;8.938;2022-12-07T11:32:19;94.07;;;39.80;;
26690;SDS011;14307;51.718;8.938;2022-12-07T11:37:35;94.72;;;40.30;;
26690;SDS011;14307;51.718;8.938;2022-12-07T11:40:12;87.85;;;38.05;;
26690;SDS011;14307;51.718;8.938;2022-12-07T11:42:57;82.35;;;36.42;;
26690;SDS011;14307;51.718;8.938;2022-12-07T11:45:34;74.22;;;34.13;;
26690;SDS011;14307;51.718;8.938;2022-12-07T11:58:22;91.25;;;40.35;;
26690;SDS011;14307;51.718;8.938;2022-12-07T12:03:52;78.25;;;35.15;;
26690;SDS011;14307;51.718;8.938;2022-12-07T12:06:23;79.05;;;36.40;;
26690;SDS011;14307;51.718;8.938;2022-12-07T12:12:16;67.95;;;29.20;;
26690;SDS011;14307;51.718;8.938;2022-12-07T12:21:00;72.00;;;33.05;;
26690;SDS011;14307;51.718;8.938;2022-12-07T12:23:35;79.13;;;36.85;;
26690;SDS011;14307;51.718;8.938;2022-12-07T12:26:21;67.43;;;36.00;;
26690;SDS011;14307;51.718;8.938;2022-12-07T12:28:51;65.75;;;36.30;;
26690;SDS011;14307;51.718;8.938;2022-12-07T12:33:59;77.30;;;35.55;;
26690;SDS011;14307;51.718;8.938;2022-12-07T12:51:49;47.88;;;27.17;;
26690;SDS011;14307;51.718;8.938;2022-12-07T12:54:20;47.35;;;26.45;;
26690;SDS011;14307;51.718;8.938;2022-12-07T12:57:05;45.80;;;24.65;;
26690;SDS011;14307;51.718;8.938;2022-12-07T12:59:41;45.90;;;27.00;;
26690;SDS011;14307;51.718;8.938;2022-12-07T13:02:23;40.90;;;21.95;;
26690;SDS011;14307;51.718;8.938;2022-12-07T13:10:35;49.15;;;23.58;;
26690;SDS011;14307;51.718;8.938;2022-12-07T13:15:45;36.83;;;20.58;;
26690;SDS011;14307;51.718;8.938;2022-12-07T13:31:51;26.65;;;19.65;;
26690;SDS011;14307;51.718;8.938;2022-12-07T13:42:19;30.50;;;23.55;;
26690;SDS011;14307;51.718;8.938;2022-12-07T13:44:53;28.83;;;22.67;;
26690;SDS011;14307;51.718;8.938;2022-12-07T13:47:36;35.38;;;24.45;;
26690;SDS011;14307;51.718;8.938;2022-12-07T13:52:50;36.38;;;26.10;;
26690;SDS011;14307;51.718;8.938;2022-12-07T13:55:21;29.58;;;23.23;;
26690;SDS011;14307;51.718;8.938;2022-12-07T13:57:50;32.83;;;25.30;;
26690;SDS011;14307;51.718;8.938;2022-12-07T14:00:21;28.48;;;25.38;;
26690;SDS011;14307;51.718;8.938;2022-12-07T14:05:24;37.05;;;25.48;;
26690;SDS011;14307;51.718;8.938;2022-12-07T14:07:59;27.02;;;22.67;;
26690;SDS011;14307;51.718;8.938;2022-12-07T14:10:33;36.80;;;24.92;;
26690;SDS011;14307;51.718;8.938;2022-12-07T14:13:28;33.47;;;22.45;;
26690;SDS011;14307;51.718;8.938;2022-12-07T14:16:14;24.83;;;20.23;;
26690;SDS011;14307;51.718;8.938;2022-12-07T14:18:59;30.20;;;19.60;;
26690;SDS011;14307;51.718;8.938;2022-12-07T14:21:28;29.75;;;18.15;;
26690;SDS011;14307;51.718;8.938;2022-12-07T14:24:10;29.38;;;16.02;;
26690;SDS011;14307;51.718;8.938;2022-12-07T14:26:45;28.80;;;15.98;;
26690;SDS011;14307;51.718;8.938;2022-12-07T14:31:53;21.60;;;15.48;;
26690;SDS011;14307;51.718;8.938;2022-12-07T14:34:21;29.80;;;17.80;;
26690;SDS011;14307;51.718;8.938;2022-12-07T14:36:48;25.70;;;15.25;;
26690;SDS011;14307;51.718;8.938;2022-12-07T14:39:15;24.13;;;14.63;;
26690;SDS011;14307;51.718;8.938;2022-12-07T14:41:41;26.00;;;15.65;;
26690;SDS011;14307;51.718;8.938;2022-12-07T14:44:18;35.45;;;18.42;;
26690;SDS011;14307;51.718;8.938;2022-12-07T14:46:50;30.73;;;15.45;;
26690;SDS011;14307;51.718;8.938;2022-12-07T14:49:37;29.80;;;13.65;;
26690;SDS011;14307;51.718;8.938;2022-12-07T14:52:05;27.88;;;14.07;;
26690;SDS011;14307;51.718;8.938;2022-12-07T14:54:56;31.77;;;15.88;;
26690;SDS011;14307;51.718;8.938;2022-12-07T14:57:23;39.80;;;14.90;;
26690;SDS011;14307;51.718;8.938;2022-12-07T14:59:50;27.30;;;14.63;;
26690;SDS011;14307;51.718;8.938;2022-12-07T15:02:16;26.30;;;13.88;;
26690;SDS011;14307;51.718;8.938;2022-12-07T15:04:43;28.17;;;14.32;;
26690;SDS011;14307;51.718;8.938;2022-12-07T15:07:12;27.15;;;13.40;;
26690;SDS011;14307;51.718;8.938;2022-12-07T15:09:45;28.30;;;13.57;;
26690;SDS011;14307;51.718;8.938;2022-12-07T15:12:12;25.25;;;12.52;;
26690;SDS011;14307;51.718;8.938;2022-12-07T15:14:39;26.75;;;13.60;;
26690;SDS011;14307;51.718;8.938;2022-12-07T15:17:05;26.80;;;14.35;;
26690;SDS011;14307;51.718;8.938;2022-12-07T15:19:35;23.40;;;13.98;;
26690;SDS011;14307;51.718;8.938;2022-12-07T15:22:03;29.52;;;13.02;;
26690;SDS011;14307;51.718;8.938;2022-12-07T15:24:30;22.67;;;12.45;;
26690;SDS011;14307;51.718;8.938;2022-12-07T15:26:57;33.78;;;12.70;;
26690;SDS011;14307;51.718;8.938;2022-12-07T15:29:24;20.85;;;10.32;;
26690;SDS011;14307;51.718;8.938;2022-12-07T15:31:51;19.83;;;10.57;;
26690;SDS011;14307;51.718;8.938;2022-12-07T15:34:26;19.25;;;10.13;;
26690;SDS011;14307;51.718;8.938;2022-12-07T15:37:01;21.92;;;11.25;;
26690;SDS011;14307;51.718;8.938;2022-12-07T15:39:28;25.77;;;12.73;;
26690;SDS011;14307;51.718;8.938;2022-12-07T15:41:54;35.35;;;10.85;;
26690;SDS011;14307;51.718;8.938;2022-12-07T15:44:21;27.15;;;12.00;;
26690;SDS011;14307;51.718;8.938;2022-12-07T15:47:06;25.90;;;12.25;;
26690;SDS011;14307;51.718;8.938;2022-12-07T15:49:33;22.17;;;11.77;;
26690;SDS011;14307;51.718;8.938;2022-12-07T15:52:00;26.45;;;13.75;;
26690;SDS011;14307;51.718;8.938;2022-12-07T15:54:27;30.25;;;13.43;;
26690;SDS011;14307;51.718;8.938;2022-12-07T15:56:55;33.25;;;15.90;;
26690;SDS011;14307;51.718;8.938;2022-12-07T15:59:22;30.77;;;15.40;;
26690;SDS011;14307;51.718;8.938;2022-12-07T16:01:49;36.03;;;17.55;;
26690;SDS011;14307;51.718;8.938;2022-12-07T16:04:16;40.33;;;20.33;;
26690;SDS011;14307;51.718;8.938;2022-12-07T16:06:43;32.28;;;18.52;;
26690;SDS011;14307;51.718;8.938;2022-12-07T16:09:10;38.28;;;20.40;;
26690;SDS011;14307;51.718;8.938;2022-12-07T16:11:37;38.67;;;20.42;;
26690;SDS011;14307;51.718;8.938;2022-12-07T16:14:06;38.10;;;22.00;;
26690;SDS011;14307;51.718;8.938;2022-12-07T16:16:32;44.83;;;25.98;;
26690;SDS011;14307;51.718;8.938;2022-12-07T16:18:59;54.22;;;29.30;;
26690;SDS011;14307;51.718;8.938;2022-12-07T16:21:26;48.78;;;25.27;;
26690;SDS011;14307;51.718;8.938;2022-12-07T16:23:57;35.08;;;22.25;;
26690;SDS011;14307;51.718;8.938;2022-12-07T16:26:24;39.70;;;21.33;;
26690;SDS011;14307;51.718;8.938;2022-12-07T16:28:51;39.13;;;21.13;;
26690;SDS011;14307;51.718;8.938;2022-12-07T16:31:20;34.55;;;20.33;;
26690;SDS011;14307;51.718;8.938;2022-12-07T16:33:49;36.47;;;23.08;;
26690;SDS011;14307;51.718;8.938;2022-12-07T16:36:18;38.80;;;23.77;;
26690;SDS011;14307;51.718;8.938;2022-12-07T16:39:05;42.15;;;21.42;;
26690;SDS011;14307;51.718;8.938;2022-12-07T16:41:32;46.75;;;23.92;;
26690;SDS011;14307;51.718;8.938;2022-12-07T16:44:03;46.28;;;24.02;;
26690;SDS011;14307;51.718;8.938;2022-12-07T16:46:32;40.55;;;25.45;;
26690;SDS011;14307;51.718;8.938;2022-12-07T16:48:59;52.30;;;26.88;;
26690;SDS011;14307;51.718;8.938;2022-12-07T16:51:26;55.15;;;25.65;;
26690;SDS011;14307;51.718;8.938;2022-12-07T16:53:53;49.88;;;27.63;;
26690;SDS011;14307;51.718;8.938;2022-12-07T16:56:20;46.70;;;29.60;;
26690;SDS011;14307;51.718;8.938;2022-12-07T16:58:47;59.30;;;28.10;;
26690;SDS011;14307;51.718;8.938;2022-12-07T17:01:16;49.28;;;27.92;;
26690;SDS011;14307;51.718;8.938;2022-12-07T17:03:45;53.63;;;28.67;;
26690;SDS011;14307;51.718;8.938;2022-12-07T17:06:16;54.08;;;27.10;;